createdAt,value
2023-04-17T00:01:32.537Z,9.70
2023-04-17T00:05:41.103Z,9.90
2023-04-17T00:09:51.386Z,9.20
2023-04-17T00:14:00.737Z,8.60
2023-04-17T00:18:09.212Z,9.40
2023-04-17T00:22:17.275Z,9.30
2023-04-17T00:26:25.307Z,9.30
2023-04-17T00:30:33.532Z,11.10
2023-04-17T00:34:43.352Z,10.70
2023-04-17T00:38:51.406Z,12.30
2023-04-17T00:43:02.890Z,11.80
2023-04-17T00:47:11.324Z,11.10
2023-04-17T00:51:19.289Z,12.30
2023-04-17T00:55:27.332Z,10.60
2023-04-17T00:59:35.694Z,11.10
2023-04-17T01:03:45.879Z,11.20
2023-04-17T01:07:53.804Z,10.30
2023-04-17T01:12:21.816Z,12.40
2023-04-17T01:16:31.326Z,11.60
2023-04-17T01:20:39.164Z,10.30
2023-04-17T01:24:47.312Z,9.50
2023-04-17T01:28:56.822Z,10.10
2023-04-17T01:33:07.617Z,10.80
2023-04-17T01:37:16.815Z,10.80
2023-04-17T01:41:24.517Z,11.00
2023-04-17T01:45:32.385Z,9.70
2023-04-17T01:49:40.253Z,10.10
2023-04-17T01:53:48.669Z,10.60
2023-04-17T01:57:56.815Z,11.00
2023-04-17T02:02:04.933Z,10.60
2023-04-17T02:06:13.332Z,10.00
2023-04-17T02:10:21.391Z,9.90
2023-04-17T02:14:31.292Z,10.40
2023-04-17T02:18:40.898Z,11.40
2023-04-17T02:22:48.401Z,11.90
2023-04-17T02:26:58.976Z,11.50
2023-04-17T02:31:10.587Z,10.90
2023-04-17T02:35:18.383Z,12.00
2023-04-17T02:39:27.480Z,11.70
2023-04-17T02:43:35.755Z,12.60
2023-04-17T02:47:43.565Z,11.80
2023-04-17T02:51:52.966Z,11.50
2023-04-17T02:56:01.121Z,11.70
2023-04-17T03:00:13.858Z,12.20
2023-04-17T03:04:22.505Z,11.50
2023-04-17T03:08:35.656Z,12.50
2023-04-17T03:12:43.798Z,13.60
2023-04-17T03:16:51.722Z,13.60
2023-04-17T03:20:59.934Z,13.00
2023-04-17T03:25:08.777Z,13.10
2023-04-17T03:29:17.635Z,13.20
2023-04-17T03:33:25.933Z,12.10
2023-04-17T03:37:34.055Z,14.80
2023-04-17T03:41:42.341Z,13.50
2023-04-17T03:45:51.147Z,12.70
2023-04-17T03:49:59.270Z,12.80
2023-04-17T03:54:08.078Z,12.40
2023-04-17T03:58:16.250Z,12.30
2023-04-17T04:02:26.680Z,14.30
2023-04-17T04:06:34.938Z,14.00
2023-04-17T04:10:45.272Z,12.20
2023-04-17T04:14:52.909Z,13.70
2023-04-17T04:19:01.064Z,13.70
2023-04-17T04:23:08.781Z,14.80
2023-04-17T04:27:18.190Z,15.40
2023-04-17T04:31:26.191Z,14.30
2023-04-17T04:35:35.559Z,15.20
2023-04-17T04:39:43.435Z,15.40
2023-04-17T04:43:51.616Z,16.40
2023-04-17T04:48:00.411Z,16.20
2023-04-17T04:52:08.519Z,15.60
2023-04-17T04:56:16.676Z,14.80
2023-04-17T05:00:25.426Z,14.40
2023-04-17T05:04:33.563Z,15.50
2023-04-17T05:08:41.683Z,13.50
2023-04-17T05:12:49.752Z,16.30
2023-04-17T05:16:57.765Z,16.40
2023-04-17T05:21:05.814Z,15.50
2023-04-17T05:25:14.236Z,15.40
2023-04-17T05:29:22.059Z,15.00
2023-04-17T05:33:37.686Z,13.50
2023-04-17T05:37:48.447Z,14.60
2023-04-17T05:41:56.265Z,15.00
2023-04-17T05:46:06.200Z,15.10
2023-04-17T05:50:14.562Z,15.60
2023-04-17T05:54:24.797Z,15.40
2023-04-17T05:58:40.376Z,17.80
2023-04-17T06:02:48.427Z,17.30
2023-04-17T06:06:58.743Z,18.40
2023-04-17T06:11:07.126Z,17.80
2023-04-17T06:15:18.743Z,17.90
2023-04-17T06:19:29.254Z,18.90
2023-04-17T06:23:37.795Z,19.70
2023-04-17T06:27:47.170Z,19.60
2023-04-17T06:31:55.106Z,19.30
2023-04-17T06:36:04.789Z,19.80
2023-04-17T06:40:15.771Z,20.50
2023-04-17T06:44:29.126Z,20.90
2023-04-17T06:48:39.499Z,20.80
2023-04-17T06:52:53.488Z,20.20
2023-04-17T06:57:09.676Z,18.10
2023-04-17T07:01:17.520Z,18.50
2023-04-17T07:05:26.861Z,19.50
2023-04-17T07:09:41.208Z,18.70
2023-04-17T07:13:49.356Z,19.30
2023-04-17T07:17:57.728Z,18.70
2023-04-17T07:22:12.697Z,18.40
2023-04-17T07:26:19.974Z,20.30
2023-04-17T07:30:28.905Z,20.60
2023-04-17T07:34:41.386Z,20.80
2023-04-17T07:38:52.662Z,19.80
2023-04-17T07:43:11.011Z,20.90
2023-04-17T07:47:18.632Z,21.00
2023-04-17T07:51:34.921Z,21.60
2023-04-17T07:55:44.416Z,19.60
2023-04-17T07:59:57.495Z,22.20
2023-04-17T08:04:05.961Z,21.20
2023-04-17T08:08:22.328Z,22.40
2023-04-17T08:12:30.983Z,23.00
2023-04-17T08:16:40.817Z,23.70
2023-04-17T08:20:51.752Z,23.30
2023-04-17T08:24:59.903Z,22.80
2023-04-17T08:29:08.711Z,22.10
2023-04-17T08:33:19.254Z,22.90
2023-04-17T08:37:32.517Z,23.00
2023-04-17T08:41:51.732Z,22.10
2023-04-17T08:46:01.096Z,20.70
2023-04-17T08:50:17.131Z,20.20
2023-04-17T08:54:27.814Z,21.80
2023-04-17T08:58:37.355Z,22.50
2023-04-17T09:03:08.086Z,20.90
2023-04-17T09:07:16.990Z,20.00
2023-04-17T09:11:24.764Z,20.00
2023-04-17T09:15:33.279Z,16.10
2023-04-17T09:19:43.023Z,15.00
2023-04-17T09:23:55.950Z,14.50
2023-04-17T09:28:14.817Z,19.50
2023-04-17T09:32:26.020Z,22.50
2023-04-17T09:36:37.089Z,19.70
2023-04-17T09:40:45.319Z,19.60
2023-04-17T09:44:59.537Z,19.60
2023-04-17T09:49:18.946Z,18.90
2023-04-17T09:53:26.622Z,17.60
2023-04-17T09:57:35.150Z,8.80
2023-04-17T10:01:45.246Z,10.70
2023-04-17T10:06:00.271Z,11.60
2023-04-17T10:10:12.165Z,12.20
2023-04-17T10:14:29.390Z,11.70
2023-04-17T10:18:37.336Z,11.60
2023-04-17T10:22:45.614Z,11.30
2023-04-17T10:26:53.170Z,12.50
2023-04-17T10:31:06.587Z,12.60
2023-04-17T10:35:38.842Z,13.70
2023-04-17T10:39:55.565Z,11.30
2023-04-17T10:44:09.377Z,13.70
2023-04-17T10:48:25.001Z,12.40
2023-04-17T10:52:46.119Z,9.00
2023-04-17T10:56:58.828Z,13.90
2023-04-17T11:01:12.805Z,14.20
2023-04-17T11:05:21.079Z,13.10
2023-04-17T11:09:30.902Z,11.60
2023-04-17T11:13:42.723Z,11.60
2023-04-17T11:17:51.034Z,12.90
2023-04-17T11:22:01.764Z,13.50
2023-04-17T11:26:10.256Z,12.40
2023-04-17T11:30:27.468Z,12.50
2023-04-17T11:34:36.105Z,13.30
2023-04-17T11:38:50.910Z,13.70
2023-04-17T11:42:58.630Z,12.20
2023-04-17T11:47:06.833Z,12.90
2023-04-17T11:51:14.627Z,12.30
2023-04-17T11:55:22.871Z,10.30
2023-04-17T11:59:34.911Z,11.10
2023-04-17T12:03:45.245Z,10.80
2023-04-17T12:08:04.685Z,11.60
2023-04-17T12:12:12.307Z,11.40
2023-04-17T12:16:22.415Z,11.80
2023-04-17T12:20:30.440Z,14.00
2023-04-17T12:24:38.453Z,11.10
2023-04-17T12:28:46.887Z,11.50
2023-04-17T12:32:54.899Z,11.50
2023-04-17T12:37:02.160Z,12.50
2023-04-17T12:41:09.848Z,10.00
2023-04-17T12:45:18.286Z,10.40
2023-04-17T12:49:25.654Z,9.50
2023-04-17T12:53:33.103Z,9.50
2023-04-17T12:57:41.192Z,9.40
2023-04-17T13:01:48.985Z,9.10
2023-04-17T13:05:57.219Z,10.10
2023-04-17T13:10:06.564Z,8.70
2023-04-17T13:14:15.425Z,10.30
2023-04-17T13:18:23.029Z,10.70
2023-04-17T13:22:30.686Z,12.00
2023-04-17T13:26:39.937Z,10.40
2023-04-17T13:30:47.637Z,10.90
2023-04-17T13:34:58.627Z,11.40
2023-04-17T13:39:11.572Z,8.60
2023-04-17T13:43:19.878Z,9.00
2023-04-17T13:47:27.622Z,9.10
2023-04-17T13:51:36.138Z,10.10
2023-04-17T13:55:43.881Z,11.00
2023-04-17T13:59:52.671Z,11.50
2023-04-17T14:04:00.914Z,9.80
2023-04-17T14:08:09.418Z,9.70
2023-04-17T14:12:20.905Z,9.20
2023-04-17T14:16:29.053Z,9.30
2023-04-17T14:20:36.684Z,6.90
2023-04-17T14:24:45.767Z,7.70
2023-04-17T14:28:53.627Z,8.30
2023-04-17T14:33:01.275Z,8.20
2023-04-17T14:37:09.102Z,8.00
2023-04-17T14:41:16.704Z,7.80
2023-04-17T14:45:24.566Z,7.60
2023-04-17T14:49:34.913Z,6.70
2023-04-17T14:53:42.896Z,6.70
2023-04-17T14:57:50.310Z,7.10
2023-04-17T15:01:58.507Z,6.80
2023-04-17T15:06:09.785Z,6.10
2023-04-17T15:10:18.748Z,6.30
2023-04-17T15:14:29.450Z,6.30
2023-04-17T15:18:37.152Z,6.40
2023-04-17T15:22:52.662Z,6.40
2023-04-17T15:27:00.959Z,6.40
2023-04-17T15:31:08.950Z,6.50
2023-04-17T15:35:16.524Z,7.40
2023-04-17T15:39:24.516Z,8.20
2023-04-17T15:43:32.104Z,10.30
2023-04-17T15:47:40.357Z,11.40
2023-04-17T15:51:49.010Z,11.00
2023-04-17T15:55:57.297Z,10.30
2023-04-17T16:00:06.488Z,9.80
2023-04-17T16:04:14.762Z,8.20
2023-04-17T16:08:22.396Z,8.50
2023-04-17T16:12:31.352Z,9.40
2023-04-17T16:16:39.834Z,9.10
2023-04-17T16:20:47.463Z,8.70
2023-04-17T16:24:55.617Z,9.00
2023-04-17T16:29:03.403Z,9.10
2023-04-17T16:33:11.265Z,9.00
2023-04-17T16:37:18.870Z,8.80
2023-04-17T16:41:26.528Z,10.00
2023-04-17T16:45:33.730Z,9.10
2023-04-17T16:49:42.973Z,8.10
2023-04-17T16:53:52.242Z,9.00
2023-04-17T16:58:00.857Z,15.30
2023-04-17T17:02:08.712Z,11.30
2023-04-17T17:06:17.153Z,9.20
2023-04-17T17:10:25.122Z,9.50
2023-04-17T17:14:32.785Z,9.50
2023-04-17T17:18:41.297Z,10.20
2023-04-17T17:22:52.232Z,8.30
2023-04-17T17:27:00.073Z,9.00
2023-04-17T17:31:09.398Z,8.50
2023-04-17T17:35:18.258Z,8.60
2023-04-17T17:39:26.240Z,8.30
2023-04-17T17:43:33.866Z,8.40
2023-04-17T17:47:41.965Z,9.40
2023-04-17T17:51:49.836Z,10.00
2023-04-17T17:55:58.016Z,8.40
2023-04-17T18:00:06.130Z,10.10
2023-04-17T18:04:15.843Z,9.60
2023-04-17T18:08:24.405Z,9.60
2023-04-17T18:12:32.440Z,10.60
2023-04-17T18:16:42.942Z,10.60
2023-04-17T18:20:51.473Z,11.30
2023-04-17T18:24:59.747Z,10.60
2023-04-17T18:29:07.940Z,10.80
2023-04-17T18:33:18.650Z,11.40
2023-04-17T18:37:27.296Z,9.40
2023-04-17T18:41:35.889Z,11.00
2023-04-17T18:45:44.026Z,10.00
2023-04-17T18:49:54.970Z,10.90
2023-04-17T18:54:03.797Z,10.80
2023-04-17T18:58:14.208Z,9.70
2023-04-17T19:02:23.002Z,9.40
2023-04-17T19:06:31.578Z,8.70
2023-04-17T19:10:40.242Z,10.00
2023-04-17T19:14:51.843Z,10.30
2023-04-17T19:18:59.429Z,8.70
2023-04-17T19:23:12.751Z,9.10
2023-04-17T19:27:21.251Z,9.00
2023-04-17T19:31:28.989Z,9.80
2023-04-17T19:35:37.000Z,9.80
2023-04-17T19:39:45.294Z,10.80
2023-04-17T19:43:54.406Z,9.90
2023-04-17T19:48:03.109Z,10.10
2023-04-17T19:52:15.038Z,10.30
2023-04-17T19:56:24.465Z,10.90
2023-04-17T20:00:32.384Z,11.80
2023-04-17T20:04:40.058Z,10.30
2023-04-17T20:08:47.701Z,10.80
2023-04-17T20:12:57.234Z,10.60
2023-04-17T20:17:05.228Z,10.30
2023-04-17T20:21:13.335Z,10.70
2023-04-17T20:25:20.940Z,11.00
2023-04-17T20:29:29.021Z,11.30
2023-04-17T20:33:36.615Z,11.00
2023-04-17T20:37:46.197Z,10.50
2023-04-17T20:41:54.108Z,11.00
2023-04-17T20:46:01.661Z,11.70
2023-04-17T20:50:11.825Z,11.60
2023-04-17T20:54:23.345Z,11.40
2023-04-17T20:58:32.398Z,11.20
2023-04-17T21:02:41.272Z,11.60
2023-04-17T21:06:50.585Z,11.00
2023-04-17T21:10:58.072Z,11.20
2023-04-17T21:15:05.920Z,11.00
2023-04-17T21:19:13.563Z,10.10
2023-04-17T21:23:21.290Z,11.10
2023-04-17T21:27:29.064Z,11.10
2023-04-17T21:31:37.351Z,10.40
2023-04-17T21:35:44.810Z,11.60
2023-04-17T21:39:53.025Z,12.30
2023-04-17T21:44:02.723Z,12.10
2023-04-17T21:48:10.465Z,11.70
2023-04-17T21:52:18.629Z,12.10
2023-04-17T21:56:26.857Z,13.10
2023-04-17T22:00:34.582Z,11.40
2023-04-17T22:04:43.071Z,12.30
2023-04-17T22:08:52.317Z,13.70
2023-04-17T22:12:59.835Z,13.90
2023-04-17T22:17:07.975Z,12.60
2023-04-17T22:21:15.746Z,13.90
2023-04-17T22:25:23.270Z,13.30
2023-04-17T22:29:31.118Z,13.40
2023-04-17T22:33:38.867Z,13.90
2023-04-17T22:37:46.785Z,12.10
2023-04-17T22:41:54.405Z,14.00
2023-04-17T22:46:02.432Z,14.40
2023-04-17T22:50:11.815Z,12.00
2023-04-17T22:54:23.093Z,12.20
2023-04-17T22:58:34.052Z,12.40
2023-04-17T23:02:42.146Z,13.00
2023-04-17T23:06:49.820Z,12.60
2023-04-17T23:11:05.311Z,11.90
2023-04-17T23:15:14.134Z,10.90
2023-04-17T23:19:22.566Z,12.20
2023-04-17T23:23:30.861Z,12.80
2023-04-17T23:27:38.160Z,12.50
2023-04-17T23:31:46.746Z,12.20
2023-04-17T23:35:54.533Z,12.00
2023-04-17T23:40:02.327Z,11.00
2023-04-17T23:44:10.495Z,12.10
2023-04-17T23:48:17.893Z,12.30
2023-04-17T23:52:26.269Z,11.10
2023-04-17T23:56:34.188Z,12.00
